Time;durP1;ratioP1;P1;durP2;ratioP2;P2;SDS_P1;SDS_P2;PMS_P1;PMS_P2;Temp;Humidity;BMP_temperature;BMP_pressure;BME280_temperature;BME280_humidity;BME280_pressure;Samples;Min_cycle;Max_cycle;Signal;HPM_P1;HPM_P2
2022/09/07 00:00:38;;;;;;;15.93;8.13;;;;;;;;;;5013805;28;20054;-71
2022/09/07 00:03:04;;;;;;;11.77;7.95;;;;;;;;;;5016005;28;20124;-72
2022/09/07 00:05:31;;;;;;;15.68;8.82;;;;;;;;;;4991075;28;20056;-73
2022/09/07 00:07:58;;;;;;;11.85;7.90;;;;;;;;;;5012197;28;20045;-72
2022/09/07 00:10:24;;;;;;;14.10;8.00;;;;;;;;;;5012057;28;20522;-72
2022/09/07 00:12:50;;;;;;;12.38;7.90;;;;;;;;;;5014274;28;20069;-73
2022/09/07 00:15:17;;;;;;;10.90;8.75;;;;;;;;;;4990610;28;20570;-71
2022/09/07 00:17:43;;;;;;;14.10;8.52;;;;;;;;;;5002324;28;20407;-71
2022/09/07 00:20:10;;;;;;;10.85;7.70;;;;;;;;;;5005341;28;20042;-72
2022/09/07 00:22:36;;;;;;;11.98;8.75;;;;;;;;;;5006911;28;20043;-73
2022/09/07 00:25:03;;;;;;;13.00;7.88;;;;;;;;;;5008266;28;20056;-72
2022/09/07 00:27:29;;;;;;;13.95;8.50;;;;;;;;;;4998647;28;22377;-73
2022/09/07 00:29:55;;;;;;;10.20;7.82;;;;;;;;;;5005352;28;20181;-72
2022/09/07 00:32:21;;;;;;;13.95;8.38;;;;;;;;;;4990298;28;20046;-72
2022/09/07 00:34:48;;;;;;;12.68;8.57;;;;;;;;;;5007865;28;20053;-72
2022/09/07 00:37:14;;;;;;;12.48;7.80;;;;;;;;;;5006369;28;20583;-72
2022/09/07 00:39:40;;;;;;;13.10;8.65;;;;;;;;;;5008590;28;20065;-72
2022/09/07 00:42:07;;;;;;;14.65;8.60;;;;;;;;;;5006675;28;20432;-72
2022/09/07 00:44:43;;;;;;;12.57;8.48;;;;;;;;;;5007456;28;20056;-72
2022/09/07 00:47:09;;;;;;;14.00;8.13;;;;;;;;;;5014655;28;20050;-72
2022/09/07 00:49:36;;;;;;;11.55;8.23;;;;;;;;;;5013915;28;20562;-72
2022/09/07 00:52:03;;;;;;;13.57;8.80;;;;;;;;;;5017632;28;20073;-72
2022/09/07 00:54:33;;;;;;;11.20;8.00;;;;;;;;;;5015156;28;20053;-72
2022/09/07 00:56:59;;;;;;;13.38;8.20;;;;;;;;;;5009697;28;20451;-72
2022/09/07 00:59:28;;;;;;;13.15;8.05;;;;;;;;;;4996901;28;20046;-72
2022/09/07 01:01:54;;;;;;;13.05;8.50;;;;;;;;;;5014517;28;20049;-72
2022/09/07 01:04:21;;;;;;;11.70;9.02;;;;;;;;;;5013074;28;20117;-71
2022/09/07 01:06:48;;;;;;;14.27;8.40;;;;;;;;;;5012043;28;20042;-71
2022/09/07 01:09:17;;;;;;;14.07;9.27;;;;;;;;;;5011282;28;20042;-71
2022/09/07 01:11:49;;;;;;;13.73;9.27;;;;;;;;;;5010284;28;20404;-71
2022/09/07 01:14:16;;;;;;;14.65;9.55;;;;;;;;;;5012559;28;20194;-71
2022/09/07 01:16:45;;;;;;;13.38;9.98;;;;;;;;;;5011400;28;20389;-72
2022/09/07 01:19:26;;;;;;;15.80;10.23;;;;;;;;;;5012879;28;20061;-72
2022/09/07 01:21:59;;;;;;;15.73;9.50;;;;;;;;;;4996273;28;20100;-70
2022/09/07 01:24:28;;;;;;;18.00;11.30;;;;;;;;;;5012837;28;20042;-72
2022/09/07 01:27:03;;;;;;;13.52;11.65;;;;;;;;;;5012789;28;20049;-71
2022/09/07 01:29:33;;;;;;;16.85;12.63;;;;;;;;;;5012428;28;20124;-70
2022/09/07 01:32:04;;;;;;;16.98;11.48;;;;;;;;;;5013713;28;20412;-69
2022/09/07 01:34:31;;;;;;;16.75;13.07;;;;;;;;;;5013728;28;20124;-70
2022/09/07 01:37:07;;;;;;;16.10;12.60;;;;;;;;;;5012118;28;20496;-70
2022/09/07 01:39:42;;;;;;;15.52;12.95;;;;;;;;;;5005640;28;20046;-70
2022/09/07 01:42:10;;;;;;;19.83;13.95;;;;;;;;;;5007469;28;20129;-70
2022/09/07 01:44:36;;;;;;;15.70;14.05;;;;;;;;;;5014297;28;20113;-70
2022/09/07 01:47:22;;;;;;;17.48;14.77;;;;;;;;;;4994283;28;20053;-70
2022/09/07 01:49:51;;;;;;;17.23;15.15;;;;;;;;;;5002988;28;20488;-70
2022/09/07 01:52:36;;;;;;;17.77;15.68;;;;;;;;;;5013342;28;20046;-70
2022/09/07 01:55:12;;;;;;;18.90;16.45;;;;;;;;;;4994387;28;20092;-70
2022/09/07 01:57:47;;;;;;;19.38;17.08;;;;;;;;;;5013260;28;20496;-72
2022/09/07 02:00:14;;;;;;;18.00;15.75;;;;;;;;;;5013389;28;20045;-70
2022/09/07 02:02:49;;;;;;;19.13;15.48;;;;;;;;;;5012511;28;20129;-71
2022/09/07 02:05:17;;;;;;;19.38;16.40;;;;;;;;;;5014499;28;20038;-71
2022/09/07 02:07:59;;;;;;;19.17;16.92;;;;;;;;;;5009936;28;20046;-71
2022/09/07 02:10:32;;;;;;;19.50;15.88;;;;;;;;;;5009403;28;20041;-70
2022/09/07 02:13:00;;;;;;;18.05;15.77;;;;;;;;;;5012666;28;20042;-71
2022/09/07 02:15:29;;;;;;;18.42;15.63;;;;;;;;;;4981738;28;20049;-70
2022/09/07 02:18:02;;;;;;;17.20;15.40;;;;;;;;;;5006900;28;20096;-69
2022/09/07 02:20:32;;;;;;;16.85;15.05;;;;;;;;;;5007358;28;20419;-69
2022/09/07 02:22:59;;;;;;;17.80;15.65;;;;;;;;;;5012730;28;20550;-69
2022/09/07 02:25:28;;;;;;;17.88;14.88;;;;;;;;;;4993375;28;20099;-70
2022/09/07 02:27:59;;;;;;;17.20;15.20;;;;;;;;;;4987011;28;20505;-69
2022/09/07 02:30:25;;;;;;;16.48;13.98;;;;;;;;;;5020792;28;20046;-69
2022/09/07 02:32:51;;;;;;;17.95;15.88;;;;;;;;;;5012417;28;20037;-69
2022/09/07 02:35:18;;;;;;;17.27;15.13;;;;;;;;;;5012568;28;20522;-70
2022/09/07 02:37:44;;;;;;;16.88;14.38;;;;;;;;;;5011875;28;20484;-69
2022/09/07 02:40:13;;;;;;;15.93;14.32;;;;;;;;;;4994069;28;20132;-69
2022/09/07 02:42:40;;;;;;;15.48;13.63;;;;;;;;;;5011825;28;20452;-69
2022/09/07 02:45:07;;;;;;;15.85;13.70;;;;;;;;;;5013850;28;20057;-70
2022/09/07 02:47:49;;;;;;;15.70;14.02;;;;;;;;;;4993919;28;20488;-70
2022/09/07 02:50:35;;;;;;;15.43;13.82;;;;;;;;;;5011749;28;20041;-69
2022/09/07 02:53:08;;;;;;;15.27;13.57;;;;;;;;;;5001245;28;20054;-69
2022/09/07 02:55:47;;;;;;;18.08;13.55;;;;;;;;;;5008698;28;20065;-69
2022/09/07 02:58:20;;;;;;;14.80;13.38;;;;;;;;;;5005577;28;20045;-68
2022/09/07 03:01:09;;;;;;;15.13;13.45;;;;;;;;;;5025684;28;20504;-70
2022/09/07 03:03:53;;;;;;;15.63;14.00;;;;;;;;;;5012970;28;20177;-70
2022/09/07 03:06:32;;;;;;;15.20;13.73;;;;;;;;;;4999624;28;20041;-69
2022/09/07 03:09:01;;;;;;;19.50;14.52;;;;;;;;;;5009314;28;20049;-70
2022/09/07 03:11:28;;;;;;;17.50;15.43;;;;;;;;;;5007846;28;20038;-69
2022/09/07 03:14:10;;;;;;;17.08;15.13;;;;;;;;;;5011112;28;20054;-70
2022/09/07 03:16:36;;;;;;;17.40;15.30;;;;;;;;;;5011639;28;20423;-70
2022/09/07 03:19:03;;;;;;;17.75;15.93;;;;;;;;;;5010639;28;20117;-70
2022/09/07 03:21:30;;;;;;;18.65;16.52;;;;;;;;;;4995225;28;20531;-70
2022/09/07 03:23:56;;;;;;;18.67;15.95;;;;;;;;;;5011603;28;20404;-70
2022/09/07 03:26:24;;;;;;;20.15;16.63;;;;;;;;;;5011803;28;20408;-70
2022/09/07 03:28:50;;;;;;;22.92;17.00;;;;;;;;;;5007990;28;20468;-71
2022/09/07 03:31:16;;;;;;;18.73;16.75;;;;;;;;;;5009378;28;20054;-70
2022/09/07 03:33:42;;;;;;;18.75;16.85;;;;;;;;;;4991779;28;20049;-71
2022/09/07 03:36:08;;;;;;;19.23;17.30;;;;;;;;;;5022462;28;20049;-71
2022/09/07 03:38:34;;;;;;;18.33;16.42;;;;;;;;;;5010282;28;20041;-71
2022/09/07 03:41:01;;;;;;;17.95;16.20;;;;;;;;;;5020249;28;20041;-70
2022/09/07 03:43:28;;;;;;;19.85;17.70;;;;;;;;;;5018961;28;20037;-71
2022/09/07 03:46:01;;;;;;;20.08;16.08;;;;;;;;;;5017109;28;20045;-70
2022/09/07 03:48:30;;;;;;;19.08;17.08;;;;;;;;;;5016564;28;20500;-69
2022/09/07 03:50:57;;;;;;;18.90;16.80;;;;;;;;;;5017426;28;20046;-70
2022/09/07 03:53:23;;;;;;;18.83;16.83;;;;;;;;;;5017739;28;20052;-70
2022/09/07 03:55:56;;;;;;;21.05;18.92;;;;;;;;;;5000026;28;20452;-70
2022/09/07 03:58:22;;;;;;;19.38;17.45;;;;;;;;;;5015747;28;20095;-70
2022/09/07 04:00:48;;;;;;;20.42;18.42;;;;;;;;;;5018991;28;20049;-71
2022/09/07 04:03:14;;;;;;;20.42;18.30;;;;;;;;;;5006933;28;20050;-70
2022/09/07 04:05:40;;;;;;;22.20;19.98;;;;;;;;;;4991562;28;20049;-69
2022/09/07 04:08:06;;;;;;;21.10;19.00;;;;;;;;;;5014836;28;20108;-70
2022/09/07 04:10:37;;;;;;;24.20;19.85;;;;;;;;;;5015186;28;20057;-70
2022/09/07 04:13:03;;;;;;;23.15;20.90;;;;;;;;;;5023940;28;20046;-71
2022/09/07 04:15:29;;;;;;;24.13;21.73;;;;;;;;;;5016649;28;20061;-71
2022/09/07 04:17:55;;;;;;;24.27;21.88;;;;;;;;;;5014853;28;20092;-70
2022/09/07 04:20:21;;;;;;;23.98;21.55;;;;;;;;;;5016467;28;20046;-70
2022/09/07 04:22:48;;;;;;;24.23;21.67;;;;;;;;;;5017409;28;20034;-70
2022/09/07 04:25:14;;;;;;;25.17;22.50;;;;;;;;;;5016456;28;20531;-69
2022/09/07 04:27:40;;;;;;;22.83;20.52;;;;;;;;;;5016607;28;20070;-70
2022/09/07 04:30:06;;;;;;;24.65;21.58;;;;;;;;;;5017434;28;20471;-70
2022/09/07 04:32:32;;;;;;;26.08;23.33;;;;;;;;;;5016019;28;20049;-71
2022/09/07 04:34:58;;;;;;;23.15;20.85;;;;;;;;;;5017662;28;20449;-70
2022/09/07 04:37:25;;;;;;;24.50;22.00;;;;;;;;;;5020258;28;20038;-70
2022/09/07 04:39:51;;;;;;;25.83;23.13;;;;;;;;;;4997660;28;20042;-70
2022/09/07 04:42:17;;;;;;;24.27;22.02;;;;;;;;;;4984619;28;20812;-70
2022/09/07 04:44:43;;;;;;;27.30;24.60;;;;;;;;;;5020208;28;20136;-70
2022/09/07 04:47:09;;;;;;;25.50;22.92;;;;;;;;;;5011645;28;20098;-70
2022/09/07 04:49:35;;;;;;;26.30;23.70;;;;;;;;;;4990625;28;20112;-70
2022/09/07 04:52:01;;;;;;;27.75;25.10;;;;;;;;;;5014332;28;20046;-71
2022/09/07 04:54:28;;;;;;;28.35;25.33;;;;;;;;;;5013715;28;20069;-69
2022/09/07 04:56:54;;;;;;;28.15;25.42;;;;;;;;;;5008530;28;20046;-70
2022/09/07 04:59:20;;;;;;;27.63;24.92;;;;;;;;;;5013620;28;20048;-70
2022/09/07 05:01:46;;;;;;;27.23;24.58;;;;;;;;;;5011473;28;20366;-70
2022/09/07 05:04:12;;;;;;;27.15;24.65;;;;;;;;;;5012766;28;20046;-70
2022/09/07 05:06:38;;;;;;;28.85;25.83;;;;;;;;;;4995391;28;20046;-70
2022/09/07 05:09:04;;;;;;;27.83;25.02;;;;;;;;;;5010931;28;20403;-70
2022/09/07 05:11:30;;;;;;;28.02;25.33;;;;;;;;;;5012076;28;20052;-71
2022/09/07 05:14:00;;;;;;;27.70;25.10;;;;;;;;;;5013145;28;20046;-70
2022/09/07 05:16:27;;;;;;;28.67;25.98;;;;;;;;;;5013440;28;20054;-70
2022/09/07 05:18:54;;;;;;;27.77;24.95;;;;;;;;;;5013899;28;20104;-70
2022/09/07 05:21:23;;;;;;;25.95;23.40;;;;;;;;;;4993556;28;20426;-70
2022/09/07 05:23:50;;;;;;;25.88;23.27;;;;;;;;;;5007372;28;20607;-70
2022/09/07 05:26:16;;;;;;;26.95;24.48;;;;;;;;;;4995398;28;20046;-70
2022/09/07 05:28:43;;;;;;;26.15;23.65;;;;;;;;;;5012754;28;20042;-70
2022/09/07 05:31:10;;;;;;;28.48;25.42;;;;;;;;;;4999235;28;20052;-70
2022/09/07 05:33:36;;;;;;;26.88;24.10;;;;;;;;;;5020050;28;20050;-70
2022/09/07 05:36:03;;;;;;;25.25;22.85;;;;;;;;;;5013333;28;20048;-70
2022/09/07 05:38:29;;;;;;;27.08;24.52;;;;;;;;;;5009242;28;20046;-70
2022/09/07 05:40:55;;;;;;;26.92;24.25;;;;;;;;;;5006054;28;20156;-70
2022/09/07 05:43:22;;;;;;;26.63;24.10;;;;;;;;;;5012564;28;20452;-70
2022/09/07 05:45:48;;;;;;;24.30;21.98;;;;;;;;;;5008011;28;20041;-70
2022/09/07 05:48:14;;;;;;;27.95;25.33;;;;;;;;;;5010041;28;20050;-70
2022/09/07 05:50:48;;;;;;;26.98;24.40;;;;;;;;;;5013878;28;20524;-70
2022/09/07 05:53:14;;;;;;;27.70;24.40;;;;;;;;;;4994628;28;20455;-69
2022/09/07 05:55:40;;;;;;;24.25;21.95;;;;;;;;;;5009630;28;20045;-69
2022/09/07 05:58:06;;;;;;;26.67;23.98;;;;;;;;;;5021791;28;20042;-69
2022/09/07 06:00:32;;;;;;;25.60;23.25;;;;;;;;;;5019013;28;20484;-70
2022/09/07 06:02:58;;;;;;;24.80;22.40;;;;;;;;;;5012393;28;20072;-70
2022/09/07 06:05:24;;;;;;;25.67;23.17;;;;;;;;;;5014845;28;20072;-70
2022/09/07 06:07:51;;;;;;;27.52;24.70;;;;;;;;;;5004147;28;20353;-70
2022/09/07 06:10:17;;;;;;;25.10;22.77;;;;;;;;;;5027323;28;20496;-69
2022/09/07 06:12:46;;;;;;;27.17;24.48;;;;;;;;;;5011383;28;20038;-70
2022/09/07 06:15:13;;;;;;;25.80;23.33;;;;;;;;;;5014211;28;20133;-69
2022/09/07 06:17:39;;;;;;;25.70;22.98;;;;;;;;;;5017021;28;20034;-70
2022/09/07 06:20:06;;;;;;;25.90;23.30;;;;;;;;;;4995103;28;20132;-68
2022/09/07 06:22:35;;;;;;;26.02;23.40;;;;;;;;;;5011803;28;20076;-69
2022/09/07 06:25:01;;;;;;;20.17;18.27;;;;;;;;;;5007629;28;20070;-70
2022/09/07 06:27:28;;;;;;;24.45;21.15;;;;;;;;;;5007672;28;20053;-69
2022/09/07 06:29:54;;;;;;;27.52;22.17;;;;;;;;;;5024466;28;20046;-69
2022/09/07 06:32:20;;;;;;;22.17;20.05;;;;;;;;;;4994200;28;20042;-69
2022/09/07 06:34:46;;;;;;;21.55;19.33;;;;;;;;;;5021226;28;20049;-69
2022/09/07 06:37:12;;;;;;;23.77;21.52;;;;;;;;;;5011031;28;20041;-68
2022/09/07 06:39:38;;;;;;;23.40;19.85;;;;;;;;;;4995310;28;20507;-69
2022/09/07 06:42:04;;;;;;;26.42;20.30;;;;;;;;;;4995499;28;20195;-68
2022/09/07 06:44:31;;;;;;;21.25;19.17;;;;;;;;;;5013130;28;20049;-69
2022/09/07 06:46:57;;;;;;;21.27;18.98;;;;;;;;;;5004159;28;20425;-69
2022/09/07 06:49:23;;;;;;;21.58;19.25;;;;;;;;;;5013053;28;20045;-69
2022/09/07 06:51:49;;;;;;;20.65;18.23;;;;;;;;;;5011415;28;20053;-70
2022/09/07 06:54:15;;;;;;;19.98;17.98;;;;;;;;;;5012664;28;20062;-69
2022/09/07 06:56:41;;;;;;;19.67;17.60;;;;;;;;;;5011286;28;20056;-68
2022/09/07 06:59:07;;;;;;;19.30;17.42;;;;;;;;;;5002980;28;20111;-69
2022/09/07 07:01:33;;;;;;;19.80;17.40;;;;;;;;;;5012793;28;20107;-69
2022/09/07 07:04:00;;;;;;;20.17;18.13;;;;;;;;;;5011330;28;20467;-69
2022/09/07 07:06:36;;;;;;;18.02;16.13;;;;;;;;;;5030778;28;20463;-69
2022/09/07 07:09:02;;;;;;;19.73;17.52;;;;;;;;;;5031421;28;20048;-69
2022/09/07 07:11:30;;;;;;;19.23;17.48;;;;;;;;;;5014760;28;20397;-68
2022/09/07 07:13:56;;;;;;;20.70;18.25;;;;;;;;;;5014816;28;20410;-68
2022/09/07 07:16:22;;;;;;;19.40;16.90;;;;;;;;;;5029051;28;20060;-68
2022/09/07 07:18:51;;;;;;;20.52;17.33;;;;;;;;;;5022171;28;20042;-69
2022/09/07 07:21:17;;;;;;;17.27;13.98;;;;;;;;;;4992441;28;20057;-67
2022/09/07 07:23:44;;;;;;;17.42;15.32;;;;;;;;;;4994433;28;20085;-69
2022/09/07 07:26:12;;;;;;;16.85;15.05;;;;;;;;;;5023622;28;20041;-69
2022/09/07 07:28:39;;;;;;;16.75;14.95;;;;;;;;;;5008024;28;20101;-68
2022/09/07 07:31:06;;;;;;;17.63;15.93;;;;;;;;;;5011700;28;20526;-68
2022/09/07 07:33:51;;;;;;;18.85;16.95;;;;;;;;;;5008276;28;20447;-69
2022/09/07 07:36:22;;;;;;;17.08;15.38;;;;;;;;;;5025814;28;20053;-69
2022/09/07 07:38:49;;;;;;;20.17;18.07;;;;;;;;;;5012209;28;20049;-70
2022/09/07 07:41:15;;;;;;;19.30;16.45;;;;;;;;;;4993963;28;20046;-70
2022/09/07 07:43:45;;;;;;;19.38;17.45;;;;;;;;;;5012157;28;20045;-70
2022/09/07 07:46:15;;;;;;;18.75;16.88;;;;;;;;;;4994461;28;20050;-70
2022/09/07 07:48:41;;;;;;;20.65;17.17;;;;;;;;;;5010498;28;20045;-68
2022/09/07 07:51:10;;;;;;;20.80;17.23;;;;;;;;;;4994652;28;20100;-69
2022/09/07 07:53:38;;;;;;;18.38;15.30;;;;;;;;;;5012407;28;20042;-69
2022/09/07 07:56:04;;;;;;;19.63;15.57;;;;;;;;;;5012107;28;20050;-69
2022/09/07 07:58:31;;;;;;;20.40;18.30;;;;;;;;;;4994619;28;20058;-69
2022/09/07 08:01:01;;;;;;;21.00;17.60;;;;;;;;;;5010562;28;20042;-69
2022/09/07 08:03:28;;;;;;;21.13;18.93;;;;;;;;;;5010111;28;20566;-69
2022/09/07 08:05:54;;;;;;;22.05;18.90;;;;;;;;;;4994661;28;20092;-69
2022/09/07 08:08:22;;;;;;;18.95;17.02;;;;;;;;;;4994711;28;20046;-70
2022/09/07 08:10:48;;;;;;;20.23;17.33;;;;;;;;;;4994664;28;20053;-68
2022/09/07 08:13:15;;;;;;;20.85;18.50;;;;;;;;;;5012065;28;20084;-69
2022/09/07 08:15:44;;;;;;;23.02;20.15;;;;;;;;;;5011198;28;20053;-69
2022/09/07 08:18:11;;;;;;;22.33;19.95;;;;;;;;;;5010639;28;20045;-69
2022/09/07 08:20:38;;;;;;;20.27;17.92;;;;;;;;;;5013962;28;20060;-69
2022/09/07 08:23:06;;;;;;;20.58;18.38;;;;;;;;;;5015557;28;20046;-69
2022/09/07 08:25:32;;;;;;;22.50;20.30;;;;;;;;;;5014151;28;20124;-69
2022/09/07 08:27:58;;;;;;;20.48;18.38;;;;;;;;;;5015437;28;20049;-68
2022/09/07 08:30:24;;;;;;;23.98;21.50;;;;;;;;;;5013091;28;20054;-68
2022/09/07 08:32:50;;;;;;;23.05;20.58;;;;;;;;;;5014293;28;21999;-68
2022/09/07 08:35:16;;;;;;;21.45;18.08;;;;;;;;;;5015515;28;20056;-69
2022/09/07 08:37:42;;;;;;;21.88;19.52;;;;;;;;;;5014139;28;20045;-69
2022/09/07 08:40:26;;;;;;;23.75;20.90;;;;;;;;;;5015290;28;20053;-68
2022/09/07 08:43:11;;;;;;;27.02;21.95;;;;;;;;;;4980498;28;20038;-68
2022/09/07 08:45:41;;;;;;;30.00;22.30;;;;;;;;;;5029551;28;20037;-69
2022/09/07 08:48:09;;;;;;;26.85;21.42;;;;;;;;;;5026864;28;20042;-68
2022/09/07 08:50:40;;;;;;;25.27;21.55;;;;;;;;;;5013983;28;20042;-71
2022/09/07 08:53:17;;;;;;;23.13;20.90;;;;;;;;;;5015244;28;20046;-70
2022/09/07 08:55:47;;;;;;;24.02;21.48;;;;;;;;;;5014075;28;20062;-68
2022/09/07 08:58:31;;;;;;;25.00;22.40;;;;;;;;;;5013876;28;20038;-69
2022/09/07 09:00:57;;;;;;;25.58;22.98;;;;;;;;;;5013188;28;20045;-70
2022/09/07 09:03:26;;;;;;;26.02;23.58;;;;;;;;;;4998106;28;20476;-70
2022/09/07 09:05:52;;;;;;;25.88;23.38;;;;;;;;;;5021433;28;20077;-70
2022/09/07 09:08:27;;;;;;;25.65;23.15;;;;;;;;;;5014720;28;20096;-70
2022/09/07 09:11:10;;;;;;;26.23;23.55;;;;;;;;;;5012188;28;20053;-70
2022/09/07 09:13:53;;;;;;;25.92;23.33;;;;;;;;;;5011084;28;20052;-70
2022/09/07 09:16:38;;;;;;;24.73;22.23;;;;;;;;;;4996645;28;20054;-70
2022/09/07 09:19:23;;;;;;;22.27;19.98;;;;;;;;;;5014541;28;20071;-70
2022/09/07 09:21:52;;;;;;;22.40;20.23;;;;;;;;;;4995258;28;20046;-70
2022/09/07 09:24:19;;;;;;;23.00;20.75;;;;;;;;;;4997438;28;20063;-70
2022/09/07 09:26:48;;;;;;;19.00;17.13;;;;;;;;;;5013051;28;20117;-69
2022/09/07 09:29:15;;;;;;;22.88;20.55;;;;;;;;;;5014336;28;20400;-69
2022/09/07 09:31:41;;;;;;;20.75;18.83;;;;;;;;;;5013798;28;20046;-69
2022/09/07 09:34:10;;;;;;;23.58;21.25;;;;;;;;;;4995814;28;20049;-70
2022/09/07 09:36:47;;;;;;;19.60;17.60;;;;;;;;;;4996866;28;20126;-70
2022/09/07 09:39:43;;;;;;;18.10;16.40;;;;;;;;;;4996772;28;20052;-69
2022/09/07 09:42:12;;;;;;;18.02;16.23;;;;;;;;;;4994118;28;20412;-69
2022/09/07 09:44:38;;;;;;;16.92;15.15;;;;;;;;;;5014039;28;20404;-70
2022/09/07 09:47:05;;;;;;;18.50;16.60;;;;;;;;;;5013100;28;20550;-70
2022/09/07 09:49:40;;;;;;;15.95;14.35;;;;;;;;;;5013804;28;20054;-70
2022/09/07 09:52:16;;;;;;;14.20;12.68;;;;;;;;;;5014079;28;20187;-70
2022/09/07 09:54:43;;;;;;;14.23;11.30;;;;;;;;;;5013849;28;20117;-70
2022/09/07 09:57:15;;;;;;;13.57;12.18;;;;;;;;;;5013823;28;20112;-70
2022/09/07 09:59:42;;;;;;;13.45;12.05;;;;;;;;;;5009667;28;20052;-70
2022/09/07 10:02:16;;;;;;;14.85;13.23;;;;;;;;;;5012016;28;20503;-70
2022/09/07 10:04:42;;;;;;;14.45;12.70;;;;;;;;;;5013700;28;20057;-70
2022/09/07 10:07:17;;;;;;;16.30;13.63;;;;;;;;;;5013755;28;20085;-69
2022/09/07 10:09:48;;;;;;;15.75;14.05;;;;;;;;;;5013502;28;20141;-70
2022/09/07 10:12:26;;;;;;;17.08;14.73;;;;;;;;;;5021899;28;20060;-70
2022/09/07 10:14:52;;;;;;;19.15;17.15;;;;;;;;;;4997165;28;20050;-74
2022/09/07 10:17:35;;;;;;;17.98;16.08;;;;;;;;;;5001763;28;20053;-70
2022/09/07 10:20:21;;;;;;;16.65;14.90;;;;;;;;;;4996122;28;20057;-70
2022/09/07 10:22:53;;;;;;;14.77;13.30;;;;;;;;;;5013240;28;20733;-70
2022/09/07 10:25:46;;;;;;;14.57;13.07;;;;;;;;;;5010886;28;20107;-70
2022/09/07 10:28:20;;;;;;;13.63;11.55;;;;;;;;;;5009969;28;20057;-72
2022/09/07 10:30:46;;;;;;;11.10;10.00;;;;;;;;;;4993861;28;20389;-69
2022/09/07 10:33:28;;;;;;;12.25;10.68;;;;;;;;;;4992636;28;20522;-70
2022/09/07 10:36:13;;;;;;;10.57;9.27;;;;;;;;;;5021401;28;20048;-69
2022/09/07 10:38:44;;;;;;;11.48;9.98;;;;;;;;;;5015138;28;20049;-71
2022/09/07 10:41:10;;;;;;;13.55;9.45;;;;;;;;;;5014476;28;20104;-70
2022/09/07 10:43:41;;;;;;;12.13;10.63;;;;;;;;;;5011394;28;20037;-70
2022/09/07 10:46:16;;;;;;;11.40;9.90;;;;;;;;;;5013071;28;20488;-70
2022/09/07 10:48:50;;;;;;;10.32;8.88;;;;;;;;;;5009755;28;20050;-70
2022/09/07 10:51:19;;;;;;;11.75;8.95;;;;;;;;;;4994421;28;20042;-70
2022/09/07 10:53:46;;;;;;;10.73;9.30;;;;;;;;;;5010612;28;20098;-70
2022/09/07 10:56:12;;;;;;;13.35;8.93;;;;;;;;;;5012778;28;20126;-70
2022/09/07 10:58:47;;;;;;;11.00;9.05;;;;;;;;;;4995581;28;20077;-70
2022/09/07 11:01:13;;;;;;;9.93;8.23;;;;;;;;;;5012837;28;20495;-70
2022/09/07 11:03:59;;;;;;;8.25;7.30;;;;;;;;;;5012354;28;20169;-70
2022/09/07 11:06:29;;;;;;;9.65;8.65;;;;;;;;;;4995272;28;20400;-70
2022/09/07 11:09:30;;;;;;;9.85;7.35;;;;;;;;;;5011153;28;20057;-70
2022/09/07 11:12:01;;;;;;;10.25;7.70;;;;;;;;;;4971451;28;20086;-70
2022/09/07 11:14:29;;;;;;;10.35;7.63;;;;;;;;;;4960293;28;20094;-70
2022/09/07 11:16:57;;;;;;;8.05;7.22;;;;;;;;;;4950953;29;20043;-70
2022/09/07 11:19:39;;;;;;;8.75;6.45;;;;;;;;;;4948518;29;20055;-70
2022/09/07 11:22:24;;;;;;;7.25;6.00;;;;;;;;;;4967553;28;20109;-70
2022/09/07 11:24:56;;;;;;;8.25;5.75;;;;;;;;;;4971172;28;20050;-70
2022/09/07 11:27:27;;;;;;;9.13;5.95;;;;;;;;;;4949571;28;20062;-69
2022/09/07 11:29:53;;;;;;;;;;;;;;;;;;4933082;29;20058;-70
2022/09/07 11:32:28;;;;;;;12.75;6.72;;;;;;;;;;4933161;29;19923;-71
2022/09/07 11:35:01;;;;;;;8.90;6.10;;;;;;;;;;4917008;29;20160;-69
2022/09/07 11:37:35;;;;;;;7.68;6.25;;;;;;;;;;4942992;29;20051;-68
2022/09/07 11:40:12;;;;;;;9.80;6.50;;;;;;;;;;4951958;29;20055;-69
2022/09/07 11:42:44;;;;;;;8.40;5.72;;;;;;;;;;4951952;29;20051;-69
2022/09/07 11:45:15;;;;;;;8.60;5.68;;;;;;;;;;4962691;28;20049;-69
2022/09/07 11:47:45;;;;;;;7.25;5.45;;;;;;;;;;5011917;28;20050;-69
2022/09/07 11:50:15;;;;;;;8.40;5.70;;;;;;;;;;5010168;28;20057;-69
2022/09/07 11:52:41;;;;;;;;;;;;;;;;;;5012450;28;20076;-68
2022/09/07 11:55:11;;;;;;;6.10;3.78;;;;;;;;;;5013193;28;20332;-70
2022/09/07 11:57:58;;;;;;;6.18;3.63;;;;;;;;;;5016293;28;20045;-68
2022/09/07 12:00:31;;;;;;;6.25;4.28;;;;;;;;;;5016274;28;20050;-69
2022/09/07 12:03:08;;;;;;;6.85;4.90;;;;;;;;;;5016436;28;20103;-68
2022/09/07 12:05:34;;;;;;;7.20;4.22;;;;;;;;;;5012627;28;20042;-70
2022/09/07 12:08:00;;;;;;;5.68;3.67;;;;;;;;;;5012968;28;20057;-69
2022/09/07 12:10:36;;;;;;;6.70;3.47;;;;;;;;;;5012175;28;20395;-70
2022/09/07 12:13:02;;;;;;;7.13;3.45;;;;;;;;;;5014915;28;20125;-69
2022/09/07 12:15:51;;;;;;;6.10;3.53;;;;;;;;;;5013342;28;20108;-68
2022/09/07 12:18:33;;;;;;;6.50;4.07;;;;;;;;;;4901475;29;20049;-69
2022/09/07 12:20:59;;;;;;;6.93;2.95;;;;;;;;;;4908974;29;20059;-69
2022/09/07 12:23:29;;;;;;;5.75;3.15;;;;;;;;;;4902742;29;20153;-69
2022/09/07 12:26:14;;;;;;;7.20;3.08;;;;;;;;;;4917007;29;20052;-70
2022/09/07 12:28:40;;;;;;;5.78;2.90;;;;;;;;;;4915614;29;20044;-70
2022/09/07 12:31:11;;;;;;;5.20;3.20;;;;;;;;;;4915575;29;20524;-69
2022/09/07 12:33:38;;;;;;;6.25;3.70;;;;;;;;;;4916691;29;20040;-70
2022/09/07 12:36:24;;;;;;;7.15;3.50;;;;;;;;;;4916126;29;20101;-69
2022/09/07 12:39:17;;;;;;;5.80;3.60;;;;;;;;;;4900435;29;20083;-70
2022/09/07 12:41:44;;;;;;;7.03;3.17;;;;;;;;;;4883540;29;20052;-70
2022/09/07 12:44:23;;;;;;;6.70;2.70;;;;;;;;;;4916811;29;20040;-70
2022/09/07 12:46:53;;;;;;;5.45;2.80;;;;;;;;;;4916479;29;20063;-69
2022/09/07 12:49:26;;;;;;;5.13;2.65;;;;;;;;;;4916414;29;20483;-70
2022/09/07 12:52:01;;;;;;;5.25;2.80;;;;;;;;;;4900939;29;20044;-70
2022/09/07 12:54:33;;;;;;;5.90;3.13;;;;;;;;;;4932144;28;20062;-71
2022/09/07 12:57:04;;;;;;;4.97;2.65;;;;;;;;;;5014298;28;20046;-70
2022/09/07 12:59:30;;;;;;;4.80;2.25;;;;;;;;;;4990778;28;20057;-71
2022/09/07 13:02:11;;;;;;;5.85;2.38;;;;;;;;;;4997365;28;20045;-69
2022/09/07 13:04:38;;;;;;;;;;;;;;;;;;5013111;28;20053;-70
2022/09/07 13:07:16;;;;;;;5.88;2.25;;;;;;;;;;5013615;28;19922;-70
2022/09/07 13:09:52;;;;;;;5.90;2.03;;;;;;;;;;5012673;28;20438;-70
2022/09/07 13:12:39;;;;;;;5.95;2.38;;;;;;;;;;5013722;28;20054;-70
2022/09/07 13:15:05;;;;;;;6.90;2.30;;;;;;;;;;5013880;28;20057;-70
2022/09/07 13:17:32;;;;;;;6.63;2.75;;;;;;;;;;5012567;28;20088;-71
2022/09/07 13:19:58;;;;;;;5.18;2.80;;;;;;;;;;5014053;28;20657;-71
2022/09/07 13:22:30;;;;;;;7.07;2.60;;;;;;;;;;4996878;28;20038;-69
2022/09/07 13:25:20;;;;;;;5.68;2.60;;;;;;;;;;5014139;28;20042;-71
2022/09/07 13:27:46;;;;;;;4.53;2.47;;;;;;;;;;4995266;28;20063;-69
2022/09/07 13:30:15;;;;;;;5.63;2.63;;;;;;;;;;5002592;28;20086;-71
2022/09/07 13:32:42;;;;;;;5.50;2.08;;;;;;;;;;5011550;28;20507;-71
2022/09/07 13:35:15;;;;;;;6.50;2.15;;;;;;;;;;5014109;28;20392;-71
2022/09/07 13:37:52;;;;;;;6.05;2.10;;;;;;;;;;4994634;28;20206;-70
2022/09/07 13:40:22;;;;;;;4.85;2.10;;;;;;;;;;4994585;28;20506;-70
2022/09/07 13:42:49;;;;;;;5.55;2.45;;;;;;;;;;4994312;28;20563;-70
2022/09/07 13:45:32;;;;;;;3.97;1.90;;;;;;;;;;4994802;28;20051;-70
2022/09/07 13:47:58;;;;;;;6.97;2.80;;;;;;;;;;5001219;28;20570;-70
2022/09/07 13:50:36;;;;;;;5.28;2.40;;;;;;;;;;5013846;28;20058;-71
2022/09/07 13:53:17;;;;;;;5.15;2.10;;;;;;;;;;5013686;28;20403;-70
2022/09/07 13:55:49;;;;;;;5.38;2.25;;;;;;;;;;5013938;28;20042;-71
2022/09/07 13:58:21;;;;;;;4.63;1.80;;;;;;;;;;5011109;28;20038;-70
2022/09/07 14:00:55;;;;;;;4.32;1.77;;;;;;;;;;4994501;28;20489;-70
2022/09/07 14:03:23;;;;;;;4.55;2.00;;;;;;;;;;5012143;28;20052;-70
2022/09/07 14:05:49;;;;;;;5.43;1.90;;;;;;;;;;5011779;28;20054;-71
2022/09/07 14:08:25;;;;;;;5.50;2.22;;;;;;;;;;5012853;28;20393;-70
2022/09/07 14:10:51;;;;;;;4.35;1.83;;;;;;;;;;5013024;28;20053;-71
2022/09/07 14:13:18;;;;;;;8.05;2.10;;;;;;;;;;5012020;28;20053;-71
2022/09/07 14:15:45;;;;;;;5.03;2.03;;;;;;;;;;5011002;28;20139;-71
2022/09/07 14:18:13;;;;;;;4.97;1.80;;;;;;;;;;5013249;28;20050;-71
2022/09/07 14:20:46;;;;;;;3.80;1.90;;;;;;;;;;5013673;28;20049;-71
2022/09/07 14:23:18;;;;;;;4.40;1.60;;;;;;;;;;5013409;28;20042;-71
2022/09/07 14:25:44;;;;;;;4.75;2.13;;;;;;;;;;5013541;28;20042;-71
2022/09/07 14:28:30;;;;;;;4.07;1.92;;;;;;;;;;5028990;28;20058;-71
2022/09/07 14:30:56;;;;;;;5.35;1.90;;;;;;;;;;5012355;28;20132;-70
2022/09/07 14:33:22;;;;;;;3.83;1.55;;;;;;;;;;5007512;28;20073;-71
2022/09/07 14:35:48;;;;;;;4.55;1.95;;;;;;;;;;5002095;28;20042;-71
2022/09/07 14:38:18;;;;;;;5.57;1.88;;;;;;;;;;5013141;28;20054;-71
2022/09/07 14:40:44;;;;;;;6.80;1.90;;;;;;;;;;4979265;28;20045;-71
2022/09/07 14:43:29;;;;;;;7.45;1.95;;;;;;;;;;5010547;28;20046;-71